sensor_id;sensor_type;location;lat;lon;timestamp;P1;durP1;ratioP1;P2;durP2;ratioP2
30472;SDS011;17263;48.160;11.452;2022-07-29T00:00:09;2.27;;;1.60;;
30472;SDS011;17263;48.160;11.452;2022-07-29T00:02:36;1.90;;;1.53;;
30472;SDS011;17263;48.160;11.452;2022-07-29T00:05:02;1.83;;;1.53;;
30472;SDS011;17263;48.160;11.452;2022-07-29T00:07:29;2.00;;;1.63;;
30472;SDS011;17263;48.160;11.452;2022-07-29T00:09:55;4.70;;;2.10;;
30472;SDS011;17263;48.160;11.452;2022-07-29T00:12:21;2.30;;;2.03;;
30472;SDS011;17263;48.160;11.452;2022-07-29T00:14:49;2.73;;;1.83;;
30472;SDS011;17263;48.160;11.452;2022-07-29T00:17:15;3.13;;;2.00;;
30472;SDS011;17263;48.160;11.452;2022-07-29T00:19:41;4.30;;;2.00;;
30472;SDS011;17263;48.160;11.452;2022-07-29T00:22:07;2.07;;;1.73;;
30472;SDS011;17263;48.160;11.452;2022-07-29T00:24:33;2.10;;;1.90;;
30472;SDS011;17263;48.160;11.452;2022-07-29T00:26:59;3.13;;;2.10;;
30472;SDS011;17263;48.160;11.452;2022-07-29T00:29:25;2.30;;;2.10;;
30472;SDS011;17263;48.160;11.452;2022-07-29T00:31:51;3.23;;;2.00;;
30472;SDS011;17263;48.160;11.452;2022-07-29T00:34:17;3.50;;;1.93;;
30472;SDS011;17263;48.160;11.452;2022-07-29T00:37:01;2.33;;;1.93;;
30472;SDS011;17263;48.160;11.452;2022-07-29T00:39:28;3.93;;;2.20;;
30472;SDS011;17263;48.160;11.452;2022-07-29T00:41:54;2.57;;;1.87;;
30472;SDS011;17263;48.160;11.452;2022-07-29T00:44:21;2.90;;;1.73;;
30472;SDS011;17263;48.160;11.452;2022-07-29T00:46:47;2.27;;;2.07;;
30472;SDS011;17263;48.160;11.452;2022-07-29T00:49:13;2.17;;;1.97;;
30472;SDS011;17263;48.160;11.452;2022-07-29T00:51:39;1.97;;;1.70;;
30472;SDS011;17263;48.160;11.452;2022-07-29T00:54:06;1.90;;;1.80;;
30472;SDS011;17263;48.160;11.452;2022-07-29T00:56:33;2.83;;;1.93;;
30472;SDS011;17263;48.160;11.452;2022-07-29T00:58:59;2.30;;;1.90;;
30472;SDS011;17263;48.160;11.452;2022-07-29T01:01:26;3.27;;;1.97;;
30472;SDS011;17263;48.160;11.452;2022-07-29T01:03:53;3.03;;;1.70;;
30472;SDS011;17263;48.160;11.452;2022-07-29T01:06:19;1.70;;;1.60;;
30472;SDS011;17263;48.160;11.452;2022-07-29T01:08:46;2.57;;;2.03;;
30472;SDS011;17263;48.160;11.452;2022-07-29T01:11:13;2.00;;;1.80;;
30472;SDS011;17263;48.160;11.452;2022-07-29T01:13:42;1.70;;;1.60;;
30472;SDS011;17263;48.160;11.452;2022-07-29T01:16:10;2.47;;;1.60;;
30472;SDS011;17263;48.160;11.452;2022-07-29T01:18:41;1.60;;;1.50;;
30472;SDS011;17263;48.160;11.452;2022-07-29T01:26:57;1.70;;;1.50;;
30472;SDS011;17263;48.160;11.452;2022-07-29T01:29:30;1.77;;;1.67;;
30472;SDS011;17263;48.160;11.452;2022-07-29T01:32:11;1.40;;;1.30;;
30472;SDS011;17263;48.160;11.452;2022-07-29T01:37:19;1.57;;;1.47;;
30472;SDS011;17263;48.160;11.452;2022-07-29T01:39:52;1.53;;;1.43;;
30472;SDS011;17263;48.160;11.452;2022-07-29T01:45:08;2.50;;;1.60;;
30472;SDS011;17263;48.160;11.452;2022-07-29T01:48:22;1.77;;;1.60;;
30472;SDS011;17263;48.160;11.452;2022-07-29T01:50:33;1.53;;;1.43;;
30472;SDS011;17263;48.160;11.452;2022-07-29T01:53:07;1.60;;;1.50;;
30472;SDS011;17263;48.160;11.452;2022-07-29T01:55:37;1.73;;;1.40;;
30472;SDS011;17263;48.160;11.452;2022-07-29T01:58:05;1.70;;;1.60;;
30472;SDS011;17263;48.160;11.452;2022-07-29T02:00:33;2.40;;;1.50;;
30472;SDS011;17263;48.160;11.452;2022-07-29T02:03:00;1.70;;;1.60;;
30472;SDS011;17263;48.160;11.452;2022-07-29T02:05:30;1.80;;;1.43;;
30472;SDS011;17263;48.160;11.452;2022-07-29T02:07:59;1.60;;;1.50;;
30472;SDS011;17263;48.160;11.452;2022-07-29T02:10:27;1.70;;;1.60;;
30472;SDS011;17263;48.160;11.452;2022-07-29T02:12:55;1.53;;;1.43;;
30472;SDS011;17263;48.160;11.452;2022-07-29T02:15:26;2.47;;;1.60;;
30472;SDS011;17263;48.160;11.452;2022-07-29T02:18:11;1.30;;;1.20;;
30472;SDS011;17263;48.160;11.452;2022-07-29T02:20:42;1.57;;;1.47;;
30472;SDS011;17263;48.160;11.452;2022-07-29T02:23:13;2.33;;;1.70;;
30472;SDS011;17263;48.160;11.452;2022-07-29T02:25:41;1.40;;;1.30;;
30472;SDS011;17263;48.160;11.452;2022-07-29T02:28:08;2.87;;;1.50;;
30472;SDS011;17263;48.160;11.452;2022-07-29T02:30:36;1.67;;;1.40;;
30472;SDS011;17263;48.160;11.452;2022-07-29T02:33:06;1.50;;;1.40;;
30472;SDS011;17263;48.160;11.452;2022-07-29T02:35:33;1.63;;;1.53;;
30472;SDS011;17263;48.160;11.452;2022-07-29T02:38:00;1.57;;;1.40;;
30472;SDS011;17263;48.160;11.452;2022-07-29T02:40:45;1.93;;;1.57;;
30472;SDS011;17263;48.160;11.452;2022-07-29T02:43:13;1.70;;;1.60;;
30472;SDS011;17263;48.160;11.452;2022-07-29T02:45:40;2.53;;;1.40;;
30472;SDS011;17263;48.160;11.452;2022-07-29T02:48:10;2.33;;;1.77;;
30472;SDS011;17263;48.160;11.452;2022-07-29T02:50:41;1.57;;;1.47;;
30472;SDS011;17263;48.160;11.452;2022-07-29T02:53:14;1.70;;;1.60;;
30472;SDS011;17263;48.160;11.452;2022-07-29T02:55:46;1.77;;;1.67;;
30472;SDS011;17263;48.160;11.452;2022-07-29T02:58:21;1.50;;;1.40;;
30472;SDS011;17263;48.160;11.452;2022-07-29T03:00:55;2.43;;;1.60;;
30472;SDS011;17263;48.160;11.452;2022-07-29T03:03:25;1.60;;;1.43;;
30472;SDS011;17263;48.160;11.452;2022-07-29T03:05:55;1.97;;;1.43;;
30472;SDS011;17263;48.160;11.452;2022-07-29T03:08:23;1.60;;;1.50;;
30472;SDS011;17263;48.160;11.452;2022-07-29T03:10:50;1.93;;;1.70;;
30472;SDS011;17263;48.160;11.452;2022-07-29T03:13:17;1.70;;;1.60;;
30472;SDS011;17263;48.160;11.452;2022-07-29T03:15:44;2.07;;;1.80;;
30472;SDS011;17263;48.160;11.452;2022-07-29T03:18:11;1.50;;;1.40;;
30472;SDS011;17263;48.160;11.452;2022-07-29T03:20:38;2.40;;;1.60;;
30472;SDS011;17263;48.160;11.452;2022-07-29T03:23:04;2.07;;;1.67;;
30472;SDS011;17263;48.160;11.452;2022-07-29T03:25:30;1.97;;;1.73;;
30472;SDS011;17263;48.160;11.452;2022-07-29T03:27:56;2.00;;;1.80;;
30472;SDS011;17263;48.160;11.452;2022-07-29T03:30:22;1.83;;;1.73;;
30472;SDS011;17263;48.160;11.452;2022-07-29T03:32:49;2.23;;;2.00;;
30472;SDS011;17263;48.160;11.452;2022-07-29T03:35:15;2.73;;;1.90;;
30472;SDS011;17263;48.160;11.452;2022-07-29T03:37:42;2.10;;;1.80;;
30472;SDS011;17263;48.160;11.452;2022-07-29T03:40:10;2.00;;;1.87;;
30472;SDS011;17263;48.160;11.452;2022-07-29T03:42:39;1.97;;;1.80;;
30472;SDS011;17263;48.160;11.452;2022-07-29T03:45:08;4.00;;;2.57;;
30472;SDS011;17263;48.160;11.452;2022-07-29T03:47:39;2.20;;;2.00;;
30472;SDS011;17263;48.160;11.452;2022-07-29T03:50:08;2.73;;;2.20;;
30472;SDS011;17263;48.160;11.452;2022-07-29T03:52:39;2.47;;;1.93;;
30472;SDS011;17263;48.160;11.452;2022-07-29T03:55:05;2.30;;;2.10;;
30472;SDS011;17263;48.160;11.452;2022-07-29T03:57:33;3.57;;;1.80;;
30472;SDS011;17263;48.160;11.452;2022-07-29T04:00:02;2.57;;;2.10;;
30472;SDS011;17263;48.160;11.452;2022-07-29T04:02:31;2.90;;;2.33;;
30472;SDS011;17263;48.160;11.452;2022-07-29T04:04:57;4.10;;;2.10;;
30472;SDS011;17263;48.160;11.452;2022-07-29T04:07:24;2.67;;;2.47;;
30472;SDS011;17263;48.160;11.452;2022-07-29T04:09:50;2.30;;;2.10;;
30472;SDS011;17263;48.160;11.452;2022-07-29T04:12:16;2.40;;;2.20;;
30472;SDS011;17263;48.160;11.452;2022-07-29T04:14:42;2.20;;;2.00;;
30472;SDS011;17263;48.160;11.452;2022-07-29T04:17:08;3.93;;;2.43;;
30472;SDS011;17263;48.160;11.452;2022-07-29T04:19:34;2.40;;;2.20;;
30472;SDS011;17263;48.160;11.452;2022-07-29T04:22:00;3.77;;;2.37;;
30472;SDS011;17263;48.160;11.452;2022-07-29T04:24:27;2.70;;;2.17;;
30472;SDS011;17263;48.160;11.452;2022-07-29T04:26:53;2.10;;;2.00;;
30472;SDS011;17263;48.160;11.452;2022-07-29T04:29:20;2.83;;;2.43;;
30472;SDS011;17263;48.160;11.452;2022-07-29T04:31:46;2.87;;;2.40;;
30472;SDS011;17263;48.160;11.452;2022-07-29T04:34:12;3.30;;;2.67;;
30472;SDS011;17263;48.160;11.452;2022-07-29T04:36:38;6.67;;;2.50;;
30472;SDS011;17263;48.160;11.452;2022-07-29T04:39:04;2.60;;;2.40;;
30472;SDS011;17263;48.160;11.452;2022-07-29T04:41:30;4.30;;;2.40;;
30472;SDS011;17263;48.160;11.452;2022-07-29T04:43:56;3.80;;;3.10;;
30472;SDS011;17263;48.160;11.452;2022-07-29T04:46:22;7.73;;;2.73;;
30472;SDS011;17263;48.160;11.452;2022-07-29T04:48:48;4.20;;;2.60;;
30472;SDS011;17263;48.160;11.452;2022-07-29T04:51:15;3.43;;;2.50;;
30472;SDS011;17263;48.160;11.452;2022-07-29T04:53:41;8.73;;;3.03;;
30472;SDS011;17263;48.160;11.452;2022-07-29T04:56:07;4.83;;;2.70;;
30472;SDS011;17263;48.160;11.452;2022-07-29T04:58:36;5.13;;;2.40;;
30472;SDS011;17263;48.160;11.452;2022-07-29T05:01:02;6.83;;;3.20;;
30472;SDS011;17263;48.160;11.452;2022-07-29T05:03:29;4.57;;;3.00;;
30472;SDS011;17263;48.160;11.452;2022-07-29T05:05:55;6.70;;;3.00;;
30472;SDS011;17263;48.160;11.452;2022-07-29T05:08:21;7.43;;;2.90;;
30472;SDS011;17263;48.160;11.452;2022-07-29T05:10:47;5.40;;;2.83;;
30472;SDS011;17263;48.160;11.452;2022-07-29T05:13:13;3.20;;;2.70;;
30472;SDS011;17263;48.160;11.452;2022-07-29T05:15:39;5.37;;;2.70;;
30472;SDS011;17263;48.160;11.452;2022-07-29T05:18:05;5.30;;;3.37;;
30472;SDS011;17263;48.160;11.452;2022-07-29T05:20:31;6.83;;;2.67;;
30472;SDS011;17263;48.160;11.452;2022-07-29T05:22:59;3.73;;;2.60;;
30472;SDS011;17263;48.160;11.452;2022-07-29T05:25:27;5.30;;;3.13;;
30472;SDS011;17263;48.160;11.452;2022-07-29T05:27:54;4.67;;;2.47;;
30472;SDS011;17263;48.160;11.452;2022-07-29T05:30:20;2.65;;;2.40;;
30472;SDS011;17263;48.160;11.452;2022-07-29T05:32:47;2.58;;;2.33;;
30472;SDS011;17263;48.160;11.452;2022-07-29T05:35:13;6.15;;;2.20;;
30472;SDS011;17263;48.160;11.452;2022-07-29T05:37:40;7.25;;;2.20;;
30472;SDS011;17263;48.160;11.452;2022-07-29T05:40:06;4.40;;;2.30;;
30472;SDS011;17263;48.160;11.452;2022-07-29T05:42:33;6.13;;;2.33;;
30472;SDS011;17263;48.160;11.452;2022-07-29T05:45:00;2.45;;;1.90;;
30472;SDS011;17263;48.160;11.452;2022-07-29T05:47:27;6.90;;;2.15;;
30472;SDS011;17263;48.160;11.452;2022-07-29T05:49:53;6.35;;;2.40;;
30472;SDS011;17263;48.160;11.452;2022-07-29T05:52:19;4.72;;;2.58;;
30472;SDS011;17263;48.160;11.452;2022-07-29T05:54:46;2.85;;;2.08;;
30472;SDS011;17263;48.160;11.452;2022-07-29T05:57:15;2.20;;;1.92;;
30472;SDS011;17263;48.160;11.452;2022-07-29T05:59:45;1.73;;;1.63;;
30472;SDS011;17263;48.160;11.452;2022-07-29T06:02:12;5.53;;;2.40;;
30472;SDS011;17263;48.160;11.452;2022-07-29T06:04:38;7.97;;;3.17;;
30472;SDS011;17263;48.160;11.452;2022-07-29T06:07:04;6.60;;;2.50;;
30472;SDS011;17263;48.160;11.452;2022-07-29T06:09:31;2.00;;;1.80;;
30472;SDS011;17263;48.160;11.452;2022-07-29T06:11:58;4.80;;;2.10;;
30472;SDS011;17263;48.160;11.452;2022-07-29T06:14:24;2.42;;;2.00;;
30472;SDS011;17263;48.160;11.452;2022-07-29T06:16:52;3.03;;;1.90;;
30472;SDS011;17263;48.160;11.452;2022-07-29T06:19:18;5.03;;;2.15;;
30472;SDS011;17263;48.160;11.452;2022-07-29T06:21:44;4.30;;;2.45;;
30472;SDS011;17263;48.160;11.452;2022-07-29T06:24:11;2.97;;;1.52;;
30472;SDS011;17263;48.160;11.452;2022-07-29T06:26:39;2.95;;;1.80;;
30472;SDS011;17263;48.160;11.452;2022-07-29T06:29:05;5.28;;;2.20;;
30472;SDS011;17263;48.160;11.452;2022-07-29T06:31:32;3.15;;;1.80;;
30472;SDS011;17263;48.160;11.452;2022-07-29T06:33:58;4.07;;;1.75;;
30472;SDS011;17263;48.160;11.452;2022-07-29T06:36:24;2.47;;;1.83;;
30472;SDS011;17263;48.160;11.452;2022-07-29T06:38:50;4.25;;;1.88;;
30472;SDS011;17263;48.160;11.452;2022-07-29T06:41:17;1.85;;;1.58;;
30472;SDS011;17263;48.160;11.452;2022-07-29T06:43:43;2.90;;;1.73;;
30472;SDS011;17263;48.160;11.452;2022-07-29T06:46:12;2.70;;;1.42;;
30472;SDS011;17263;48.160;11.452;2022-07-29T06:48:44;2.05;;;1.85;;
30472;SDS011;17263;48.160;11.452;2022-07-29T06:51:11;2.55;;;1.75;;
30472;SDS011;17263;48.160;11.452;2022-07-29T06:53:37;1.83;;;1.63;;
30472;SDS011;17263;48.160;11.452;2022-07-29T06:56:04;2.63;;;1.90;;
30472;SDS011;17263;48.160;11.452;2022-07-29T06:58:34;2.80;;;1.90;;
30472;SDS011;17263;48.160;11.452;2022-07-29T07:01:02;3.20;;;1.80;;
30472;SDS011;17263;48.160;11.452;2022-07-29T07:03:30;2.83;;;1.88;;
30472;SDS011;17263;48.160;11.452;2022-07-29T07:05:56;3.22;;;2.13;;
30472;SDS011;17263;48.160;11.452;2022-07-29T07:08:22;4.28;;;1.92;;
30472;SDS011;17263;48.160;11.452;2022-07-29T07:10:52;2.33;;;1.60;;
30472;SDS011;17263;48.160;11.452;2022-07-29T07:13:18;1.92;;;1.50;;
30472;SDS011;17263;48.160;11.452;2022-07-29T07:15:45;2.22;;;1.52;;
30472;SDS011;17263;48.160;11.452;2022-07-29T07:18:13;1.75;;;1.50;;
30472;SDS011;17263;48.160;11.452;2022-07-29T07:20:40;1.45;;;1.35;;
30472;SDS011;17263;48.160;11.452;2022-07-29T07:23:07;1.60;;;1.45;;
30472;SDS011;17263;48.160;11.452;2022-07-29T07:25:33;1.80;;;1.58;;
30472;SDS011;17263;48.160;11.452;2022-07-29T07:28:00;5.53;;;1.63;;
30472;SDS011;17263;48.160;11.452;2022-07-29T07:30:27;3.92;;;1.42;;
30472;SDS011;17263;48.160;11.452;2022-07-29T07:32:53;5.13;;;1.40;;
30472;SDS011;17263;48.160;11.452;2022-07-29T07:35:20;2.33;;;1.50;;
30472;SDS011;17263;48.160;11.452;2022-07-29T07:37:47;4.93;;;1.52;;
30472;SDS011;17263;48.160;11.452;2022-07-29T07:40:14;5.75;;;1.60;;
30472;SDS011;17263;48.160;11.452;2022-07-29T07:42:40;12.13;;;3.20;;
30472;SDS011;17263;48.160;11.452;2022-07-29T07:45:07;3.65;;;1.50;;
30472;SDS011;17263;48.160;11.452;2022-07-29T07:47:37;5.43;;;1.40;;
30472;SDS011;17263;48.160;11.452;2022-07-29T07:50:08;5.78;;;5.07;;
30472;SDS011;17263;48.160;11.452;2022-07-29T07:52:45;2.00;;;1.90;;
30472;SDS011;17263;48.160;11.452;2022-07-29T07:55:12;1.42;;;1.33;;
30472;SDS011;17263;48.160;11.452;2022-07-29T07:57:38;3.60;;;1.50;;
30472;SDS011;17263;48.160;11.452;2022-07-29T08:00:05;1.48;;;1.38;;
30472;SDS011;17263;48.160;11.452;2022-07-29T08:02:31;2.22;;;1.30;;
30472;SDS011;17263;48.160;11.452;2022-07-29T08:04:58;3.60;;;1.35;;
30472;SDS011;17263;48.160;11.452;2022-07-29T08:07:25;2.50;;;1.50;;
30472;SDS011;17263;48.160;11.452;2022-07-29T08:09:51;1.40;;;1.30;;
30472;SDS011;17263;48.160;11.452;2022-07-29T08:12:17;2.05;;;1.40;;
30472;SDS011;17263;48.160;11.452;2022-07-29T08:14:43;1.80;;;1.58;;
30472;SDS011;17263;48.160;11.452;2022-07-29T08:17:09;1.85;;;1.42;;
30472;SDS011;17263;48.160;11.452;2022-07-29T08:19:36;2.72;;;1.50;;
30472;SDS011;17263;48.160;11.452;2022-07-29T08:22:02;1.95;;;1.45;;
30472;SDS011;17263;48.160;11.452;2022-07-29T08:24:28;1.70;;;1.60;;
30472;SDS011;17263;48.160;11.452;2022-07-29T08:27:18;1.60;;;1.30;;
30472;SDS011;17263;48.160;11.452;2022-07-29T08:29:44;1.70;;;1.60;;
30472;SDS011;17263;48.160;11.452;2022-07-29T08:32:11;1.70;;;1.50;;
30472;SDS011;17263;48.160;11.452;2022-07-29T08:34:37;1.40;;;1.30;;
30472;SDS011;17263;48.160;11.452;2022-07-29T08:37:03;1.60;;;1.50;;
30472;SDS011;17263;48.160;11.452;2022-07-29T08:39:29;1.63;;;1.52;;
30472;SDS011;17263;48.160;11.452;2022-07-29T08:41:55;3.88;;;1.60;;
30472;SDS011;17263;48.160;11.452;2022-07-29T08:44:21;1.92;;;1.63;;
30472;SDS011;17263;48.160;11.452;2022-07-29T08:46:48;1.63;;;1.52;;
30472;SDS011;17263;48.160;11.452;2022-07-29T08:49:15;1.95;;;1.60;;
30472;SDS011;17263;48.160;11.452;2022-07-29T08:51:42;1.60;;;1.50;;
30472;SDS011;17263;48.160;11.452;2022-07-29T08:54:10;2.00;;;1.80;;
30472;SDS011;17263;48.160;11.452;2022-07-29T08:56:41;2.50;;;1.70;;
30472;SDS011;17263;48.160;11.452;2022-07-29T08:59:07;1.60;;;1.50;;
30472;SDS011;17263;48.160;11.452;2022-07-29T09:01:35;2.97;;;1.88;;
30472;SDS011;17263;48.160;11.452;2022-07-29T09:04:03;2.35;;;1.88;;
30472;SDS011;17263;48.160;11.452;2022-07-29T09:06:31;2.35;;;1.60;;
30472;SDS011;17263;48.160;11.452;2022-07-29T09:09:00;1.95;;;1.80;;
30472;SDS011;17263;48.160;11.452;2022-07-29T09:11:26;2.25;;;1.70;;
30472;SDS011;17263;48.160;11.452;2022-07-29T09:13:53;1.80;;;1.70;;
30472;SDS011;17263;48.160;11.452;2022-07-29T09:16:19;2.25;;;1.83;;
30472;SDS011;17263;48.160;11.452;2022-07-29T09:18:45;2.42;;;1.60;;
30472;SDS011;17263;48.160;11.452;2022-07-29T09:21:12;6.40;;;2.03;;
30472;SDS011;17263;48.160;11.452;2022-07-29T09:24:11;4.05;;;2.13;;
30472;SDS011;17263;48.160;11.452;2022-07-29T09:26:42;3.30;;;2.00;;
30472;SDS011;17263;48.160;11.452;2022-07-29T09:31:38;2.00;;;1.80;;
30472;SDS011;17263;48.160;11.452;2022-07-29T09:34:06;3.83;;;2.05;;
30472;SDS011;17263;48.160;11.452;2022-07-29T09:36:38;2.85;;;2.20;;
30472;SDS011;17263;48.160;11.452;2022-07-29T09:39:08;2.53;;;2.10;;
30472;SDS011;17263;48.160;11.452;2022-07-29T09:41:50;2.17;;;1.95;;
30472;SDS011;17263;48.160;11.452;2022-07-29T09:44:21;3.58;;;2.17;;
30472;SDS011;17263;48.160;11.452;2022-07-29T09:49:33;3.17;;;2.25;;
30472;SDS011;17263;48.160;11.452;2022-07-29T09:52:15;2.78;;;2.08;;
30472;SDS011;17263;48.160;11.452;2022-07-29T09:54:41;2.88;;;1.95;;
30472;SDS011;17263;48.160;11.452;2022-07-29T09:57:09;2.50;;;2.10;;
30472;SDS011;17263;48.160;11.452;2022-07-29T09:59:57;3.17;;;2.10;;
30472;SDS011;17263;48.160;11.452;2022-07-29T10:02:29;2.95;;;2.28;;
30472;SDS011;17263;48.160;11.452;2022-07-29T10:04:58;2.83;;;2.38;;
30472;SDS011;17263;48.160;11.452;2022-07-29T10:07:25;4.38;;;2.22;;
30472;SDS011;17263;48.160;11.452;2022-07-29T10:09:55;2.30;;;2.10;;
30472;SDS011;17263;48.160;11.452;2022-07-29T10:12:22;2.60;;;2.40;;
30472;SDS011;17263;48.160;11.452;2022-07-29T10:14:49;2.60;;;1.90;;
30472;SDS011;17263;48.160;11.452;2022-07-29T10:17:16;2.72;;;2.22;;
30472;SDS011;17263;48.160;11.452;2022-07-29T10:19:43;2.35;;;1.85;;
30472;SDS011;17263;48.160;11.452;2022-07-29T10:22:10;3.47;;;2.00;;
30472;SDS011;17263;48.160;11.452;2022-07-29T10:24:37;2.65;;;2.00;;
30472;SDS011;17263;48.160;11.452;2022-07-29T10:27:04;2.30;;;2.10;;
30472;SDS011;17263;48.160;11.452;2022-07-29T10:29:32;2.55;;;2.33;;
30472;SDS011;17263;48.160;11.452;2022-07-29T10:40:53;5.13;;;2.42;;
30472;SDS011;17263;48.160;11.452;2022-07-29T10:44:03;4.00;;;2.20;;
30472;SDS011;17263;48.160;11.452;2022-07-29T10:46:36;6.15;;;2.40;;
30472;SDS011;17263;48.160;11.452;2022-07-29T10:54:36;2.42;;;1.77;;
30472;SDS011;17263;48.160;11.452;2022-07-29T10:57:22;2.30;;;2.10;;
30472;SDS011;17263;48.160;11.452;2022-07-29T11:04:59;4.10;;;2.20;;
30472;SDS011;17263;48.160;11.452;2022-07-29T11:07:26;6.35;;;2.28;;
30472;SDS011;17263;48.160;11.452;2022-07-29T11:15:12;3.03;;;2.22;;
30472;SDS011;17263;48.160;11.452;2022-07-29T11:28:36;5.25;;;2.20;;
30472;SDS011;17263;48.160;11.452;2022-07-29T11:31:13;2.90;;;2.08;;
30472;SDS011;17263;48.160;11.452;2022-07-29T11:33:44;3.65;;;2.35;;
30472;SDS011;17263;48.160;11.452;2022-07-29T11:36:11;2.78;;;1.70;;
30472;SDS011;17263;48.160;11.452;2022-07-29T11:38:39;2.60;;;2.03;;
30472;SDS011;17263;48.160;11.452;2022-07-29T11:49:19;2.30;;;1.92;;
30472;SDS011;17263;48.160;11.452;2022-07-29T11:51:50;2.88;;;2.10;;
30472;SDS011;17263;48.160;11.452;2022-07-29T11:54:31;3.42;;;2.15;;
30472;SDS011;17263;48.160;11.452;2022-07-29T11:56:58;4.35;;;2.42;;
30472;SDS011;17263;48.160;11.452;2022-07-29T11:59:26;4.72;;;1.95;;
30472;SDS011;17263;48.160;11.452;2022-07-29T12:01:55;4.15;;;2.28;;
30472;SDS011;17263;48.160;11.452;2022-07-29T12:04:23;3.17;;;2.10;;
30472;SDS011;17263;48.160;11.452;2022-07-29T12:06:53;2.92;;;2.15;;
30472;SDS011;17263;48.160;11.452;2022-07-29T12:09:20;6.47;;;3.13;;
30472;SDS011;17263;48.160;11.452;2022-07-29T12:11:47;3.60;;;3.30;;
30472;SDS011;17263;48.160;11.452;2022-07-29T12:14:26;2.40;;;2.20;;
30472;SDS011;17263;48.160;11.452;2022-07-29T12:16:53;27.88;;;5.63;;
30472;SDS011;17263;48.160;11.452;2022-07-29T12:19:19;23.60;;;4.80;;
30472;SDS011;17263;48.160;11.452;2022-07-29T12:21:46;7.43;;;2.60;;
30472;SDS011;17263;48.160;11.452;2022-07-29T12:24:13;4.82;;;2.15;;
30472;SDS011;17263;48.160;11.452;2022-07-29T12:29:35;2.38;;;2.17;;
30472;SDS011;17263;48.160;11.452;2022-07-29T12:32:01;2.83;;;2.40;;
30472;SDS011;17263;48.160;11.452;2022-07-29T12:34:29;1.90;;;1.80;;
30472;SDS011;17263;48.160;11.452;2022-07-29T12:36:55;4.40;;;2.08;;
30472;SDS011;17263;48.160;11.452;2022-07-29T12:39:21;2.97;;;2.10;;
30472;SDS011;17263;48.160;11.452;2022-07-29T12:41:47;3.92;;;2.08;;
30472;SDS011;17263;48.160;11.452;2022-07-29T12:44:13;2.47;;;2.05;;
30472;SDS011;17263;48.160;11.452;2022-07-29T12:46:39;3.17;;;2.20;;
30472;SDS011;17263;48.160;11.452;2022-07-29T12:49:05;3.15;;;2.25;;
30472;SDS011;17263;48.160;11.452;2022-07-29T12:51:32;3.53;;;2.30;;
30472;SDS011;17263;48.160;11.452;2022-07-29T12:54:05;3.30;;;1.90;;
30472;SDS011;17263;48.160;11.452;2022-07-29T12:56:41;3.35;;;2.00;;
30472;SDS011;17263;48.160;11.452;2022-07-29T13:01:38;3.85;;;2.22;;
30472;SDS011;17263;48.160;11.452;2022-07-29T13:04:05;2.50;;;2.03;;
30472;SDS011;17263;48.160;11.452;2022-07-29T13:06:41;3.08;;;2.10;;
30472;SDS011;17263;48.160;11.452;2022-07-29T13:09:10;4.20;;;2.30;;
30472;SDS011;17263;48.160;11.452;2022-07-29T13:11:41;7.90;;;2.72;;
30472;SDS011;17263;48.160;11.452;2022-07-29T13:14:10;15.55;;;3.15;;
30472;SDS011;17263;48.160;11.452;2022-07-29T13:19:34;3.38;;;2.40;;
30472;SDS011;17263;48.160;11.452;2022-07-29T13:22:02;2.42;;;2.08;;
30472;SDS011;17263;48.160;11.452;2022-07-29T13:24:28;2.85;;;2.00;;
30472;SDS011;17263;48.160;11.452;2022-07-29T13:26:54;3.38;;;2.20;;
30472;SDS011;17263;48.160;11.452;2022-07-29T13:29:20;4.43;;;2.20;;
30472;SDS011;17263;48.160;11.452;2022-07-29T13:31:47;3.30;;;2.13;;
30472;SDS011;17263;48.160;11.452;2022-07-29T13:34:13;5.70;;;2.40;;
30472;SDS011;17263;48.160;11.452;2022-07-29T13:36:39;7.47;;;2.70;;
30472;SDS011;17263;48.160;11.452;2022-07-29T13:39:05;7.25;;;2.40;;
30472;SDS011;17263;48.160;11.452;2022-07-29T13:41:31;3.40;;;2.08;;
30472;SDS011;17263;48.160;11.452;2022-07-29T13:43:57;3.08;;;2.17;;
30472;SDS011;17263;48.160;11.452;2022-07-29T13:46:23;2.40;;;2.00;;
30472;SDS011;17263;48.160;11.452;2022-07-29T13:48:49;3.25;;;1.80;;
30472;SDS011;17263;48.160;11.452;2022-07-29T13:51:15;1.88;;;1.77;;
30472;SDS011;17263;48.160;11.452;2022-07-29T13:53:41;3.30;;;2.10;;
30472;SDS011;17263;48.160;11.452;2022-07-29T13:56:07;3.97;;;1.90;;
30472;SDS011;17263;48.160;11.452;2022-07-29T13:58:33;2.10;;;1.80;;
30472;SDS011;17263;48.160;11.452;2022-07-29T14:01:00;2.42;;;1.75;;
30472;SDS011;17263;48.160;11.452;2022-07-29T14:03:26;4.50;;;1.85;;
30472;SDS011;17263;48.160;11.452;2022-07-29T14:05:53;5.72;;;1.83;;
30472;SDS011;17263;48.160;11.452;2022-07-29T14:08:19;2.80;;;1.90;;
30472;SDS011;17263;48.160;11.452;2022-07-29T14:10:45;4.07;;;2.05;;
30472;SDS011;17263;48.160;11.452;2022-07-29T14:13:11;2.30;;;2.10;;
30472;SDS011;17263;48.160;11.452;2022-07-29T14:15:37;4.85;;;2.08;;
30472;SDS011;17263;48.160;11.452;2022-07-29T14:18:03;3.42;;;1.90;;
30472;SDS011;17263;48.160;11.452;2022-07-29T14:20:29;2.53;;;2.05;;
30472;SDS011;17263;48.160;11.452;2022-07-29T14:22:56;2.38;;;2.17;;
30472;SDS011;17263;48.160;11.452;2022-07-29T14:25:23;2.50;;;1.90;;
30472;SDS011;17263;48.160;11.452;2022-07-29T14:27:49;2.00;;;1.80;;
30472;SDS011;17263;48.160;11.452;2022-07-29T14:30:15;4.15;;;2.17;;
30472;SDS011;17263;48.160;11.452;2022-07-29T14:32:41;5.38;;;2.10;;
30472;SDS011;17263;48.160;11.452;2022-07-29T14:35:07;2.88;;;2.30;;
30472;SDS011;17263;48.160;11.452;2022-07-29T14:37:34;2.38;;;1.73;;
30472;SDS011;17263;48.160;11.452;2022-07-29T14:40:01;3.40;;;2.00;;
30472;SDS011;17263;48.160;11.452;2022-07-29T14:42:29;2.67;;;2.00;;
30472;SDS011;17263;48.160;11.452;2022-07-29T14:44:59;2.75;;;2.08;;
30472;SDS011;17263;48.160;11.452;2022-07-29T14:47:25;3.33;;;2.10;;
30472;SDS011;17263;48.160;11.452;2022-07-29T14:49:51;3.88;;;1.80;;
30472;SDS011;17263;48.160;11.452;2022-07-29T14:52:17;2.35;;;1.80;;
30472;SDS011;17263;48.160;11.452;2022-07-29T14:54:43;3.20;;;2.30;;
30472;SDS011;17263;48.160;11.452;2022-07-29T14:57:09;2.53;;;2.05;;
30472;SDS011;17263;48.160;11.452;2022-07-29T14:59:35;2.75;;;2.17;;
30472;SDS011;17263;48.160;11.452;2022-07-29T15:02:01;2.25;;;2.00;;
30472;SDS011;17263;48.160;11.452;2022-07-29T15:04:27;4.78;;;2.33;;
30472;SDS011;17263;48.160;11.452;2022-07-29T15:06:53;2.38;;;2.17;;
30472;SDS011;17263;48.160;11.452;2022-07-29T15:09:19;2.38;;;2.17;;
30472;SDS011;17263;48.160;11.452;2022-07-29T15:11:45;3.10;;;2.22;;
30472;SDS011;17263;48.160;11.452;2022-07-29T15:14:11;3.33;;;2.30;;
30472;SDS011;17263;48.160;11.452;2022-07-29T15:16:38;3.97;;;2.22;;
30472;SDS011;17263;48.160;11.452;2022-07-29T15:19:05;7.60;;;2.97;;
30472;SDS011;17263;48.160;11.452;2022-07-29T15:21:31;8.23;;;2.42;;
30472;SDS011;17263;48.160;11.452;2022-07-29T15:23:57;2.80;;;2.33;;
30472;SDS011;17263;48.160;11.452;2022-07-29T15:26:23;3.50;;;2.38;;
30472;SDS011;17263;48.160;11.452;2022-07-29T15:28:49;3.42;;;2.10;;
30472;SDS011;17263;48.160;11.452;2022-07-29T15:31:15;2.70;;;2.30;;
30472;SDS011;17263;48.160;11.452;2022-07-29T15:33:41;5.47;;;2.30;;
30472;SDS011;17263;48.160;11.452;2022-07-29T15:36:07;2.78;;;2.20;;
30472;SDS011;17263;48.160;11.452;2022-07-29T15:38:33;4.20;;;2.30;;
30472;SDS011;17263;48.160;11.452;2022-07-29T15:40:59;3.55;;;2.33;;
30472;SDS011;17263;48.160;11.452;2022-07-29T15:43:26;3.30;;;2.20;;
30472;SDS011;17263;48.160;11.452;2022-07-29T15:45:52;5.93;;;2.40;;